SPZO

Details ICAO SPZO (CUZ)
Name TENIENTE ALEJANDRO VELASCO ASTETE INTL
Region Peru
Timezone America/Lima (UTC-5.0)
Plans Departing 109
Arriving 155
Stats Elevation 10,860 ft / 3,310 m (AMSL)
Location -13.535722° -71.938780°
Runways 1
Magnetic Variation 5.636° W
Sunrise 2018-05-26 11:03:57 UTC / 2018-05-26 06:03:57 Local
Sunset 2018-05-26 22:28:34 UTC / 2018-05-26 17:28:34 Local
Advertisement - Login to hide

Runways

ID Width Length Bearing (true) Bearing (mag) Surface Threshold Offset Overrun Length
10 148 ft / 45 m 11,135 ft / 3,394 m 95.97° 101.61° Asphalt 0 ft / 0 m 215 ft / 66 m
28 148 ft / 45 m 11,135 ft / 3,394 m 275.96° 281.60° Asphalt 0 ft / 0 m 200 ft / 61 m

Map

Weather


0- 5 10 15 20 25 30 35+ Temperature / ° C

Clouds and Precipitation
Forecast for 2018-05-26 06:00 UTC. Updated an hour ago

Ground ~20,000 ft ~40,000 ft Winds

METAR

SPZO 260600Z 28002KT 9999 FEW050 SCT100 04/M01 Q1033 RMK PP000

TAF

SPZO 260500Z 2606/2706 VRB03KT 9999 FEW050 TX21/2619Z TN00/2610Z FM262000 28010KT 9999 FEW050 SCT080 BECMG 2700/2703 VRB03KT

Frequencies

Recorded 127.00 MHz ATIS
Tower 118.10 MHz CUSCO TWR
Ground 121.90 MHz GND
Approach 120.60 MHz CUSCO APP
Warning: Do not use this data for real-world aviation or navigation. No guarantee of current accuracy is given.